Time;durP1;ratioP1;P1;durP2;ratioP2;P2;SDS_P1;SDS_P2;PMS_P1;PMS_P2;Temp;Humidity;BMP_temperature;BMP_pressure;BME280_temperature;BME280_humidity;BME280_pressure;Samples;Min_cycle;Max_cycle;Signal;HPM_P1;HPM_P2
2023/11/18 00:01:20;;;;;;;14.63;11.83;;;9.00;99.90;;;;;;5014516;28;20490;-70
2023/11/18 00:03:45;;;;;;;14.47;11.37;;;9.00;99.90;;;;;;5019043;28;20573;-71
2023/11/18 00:06:11;;;;;;;15.83;11.87;;;9.00;99.90;;;;;;5013287;28;20290;-71
2023/11/18 00:08:36;;;;;;;17.10;11.83;;;9.00;99.90;;;;;;5010528;28;20181;-71
2023/11/18 00:11:02;;;;;;;13.90;11.20;;;9.00;99.90;;;;;;5019692;28;20196;-71
2023/11/18 00:13:28;;;;;;;13.10;11.80;;;9.00;99.90;;;;;;5017895;28;20200;-70
2023/11/18 00:15:54;;;;;;;13.20;11.57;;;8.90;99.90;;;;;;5019850;28;20783;-70
2023/11/18 00:18:20;;;;;;;13.30;11.90;;;8.90;99.90;;;;;;5020764;28;20186;-70
2023/11/18 00:20:45;;;;;;;15.33;12.80;;;9.00;99.90;;;;;;5019862;28;20208;-71
2023/11/18 00:23:11;;;;;;;11.73;10.53;;;9.00;99.90;;;;;;5014492;28;20244;-71
2023/11/18 00:25:39;;;;;;;18.40;12.50;;;9.00;99.90;;;;;;5019071;28;20185;-71
2023/11/18 00:28:07;;;;;;;16.40;13.00;;;9.00;99.90;;;;;;5021209;28;20176;-71
2023/11/18 00:30:33;;;;;;;15.30;12.70;;;9.00;99.90;;;;;;5020407;28;20835;-71
2023/11/18 00:32:58;;;;;;;15.30;12.23;;;8.90;99.90;;;;;;5024201;28;20458;-71
2023/11/18 00:35:24;;;;;;;15.03;12.07;;;9.00;99.90;;;;;;5022595;28;20423;-71
2023/11/18 00:37:49;;;;;;;16.00;12.67;;;8.90;99.90;;;;;;5020405;28;20227;-70
2023/11/18 00:40:17;;;;;;;19.47;12.83;;;8.90;99.90;;;;;;5014847;28;20225;-70
2023/11/18 00:42:44;;;;;;;15.00;12.47;;;8.90;99.90;;;;;;5014483;28;20213;-70
2023/11/18 00:45:12;;;;;;;17.80;12.87;;;8.90;99.90;;;;;;5013140;28;20426;-70
2023/11/18 00:47:38;;;;;;;15.17;12.80;;;8.90;99.90;;;;;;5014379;28;20411;-70
2023/11/18 00:50:07;;;;;;;15.30;12.63;;;8.90;99.90;;;;;;5018492;28;20439;-70
2023/11/18 00:52:33;;;;;;;14.60;12.70;;;8.90;99.90;;;;;;5016268;28;20482;-70
2023/11/18 00:54:59;;;;;;;15.53;12.50;;;9.00;99.90;;;;;;5020897;28;20415;-70
2023/11/18 00:57:25;;;;;;;15.63;12.13;;;9.00;99.90;;;;;;5016614;28;20853;-70
2023/11/18 00:59:50;;;;;;;14.27;11.97;;;9.00;99.90;;;;;;5011203;28;20188;-71
2023/11/18 01:02:17;;;;;;;18.57;12.67;;;9.00;99.90;;;;;;5011189;28;20234;-70
2023/11/18 01:04:45;;;;;;;17.63;12.20;;;9.00;99.90;;;;;;5017832;28;20202;-70
2023/11/18 01:07:12;;;;;;;15.10;12.87;;;9.00;99.90;;;;;;5008282;28;20511;-71
2023/11/18 01:09:38;;;;;;;12.90;11.50;;;9.00;99.90;;;;;;5016989;28;20814;-71
2023/11/18 01:12:05;;;;;;;14.80;12.53;;;9.00;99.90;;;;;;5019002;28;20446;-71
2023/11/18 01:14:31;;;;;;;14.57;11.33;;;9.00;99.90;;;;;;5027611;28;20893;-70
2023/11/18 01:16:57;;;;;;;12.27;10.97;;;9.00;99.90;;;;;;5028257;28;20449;-71
2023/11/18 01:19:23;;;;;;;12.50;10.83;;;9.10;99.90;;;;;;5015409;28;20452;-71
2023/11/18 01:21:49;;;;;;;14.10;10.70;;;9.10;99.90;;;;;;5016977;28;20827;-70
2023/11/18 01:24:16;;;;;;;12.70;10.60;;;9.00;99.90;;;;;;5023046;28;20442;-71
2023/11/18 01:26:41;;;;;;;15.30;12.00;;;9.00;99.90;;;;;;5020929;28;20431;-71
2023/11/18 01:29:07;;;;;;;12.03;9.70;;;9.10;99.90;;;;;;5023150;28;20430;-70
2023/11/18 01:31:33;;;;;;;12.10;10.00;;;9.10;99.90;;;;;;5016809;28;20502;-71
2023/11/18 01:33:59;;;;;;;14.53;11.13;;;9.20;99.90;;;;;;5022376;28;20219;-70
2023/11/18 01:36:25;;;;;;;10.63;9.13;;;9.20;99.90;;;;;;5015057;28;20242;-70
2023/11/18 01:38:50;;;;;;;12.43;9.80;;;9.10;99.90;;;;;;5017200;28;20961;-70
2023/11/18 01:41:16;;;;;;;11.37;9.77;;;9.10;99.90;;;;;;5017636;28;20181;-71
2023/11/18 01:43:46;;;;;;;12.70;9.50;;;9.00;99.90;;;;;;5017802;28;20277;-70
2023/11/18 01:46:12;;;;;;;10.40;9.23;;;9.00;99.90;;;;;;5017817;28;20182;-70
2023/11/18 01:48:39;;;;;;;10.17;8.60;;;9.10;99.90;;;;;;5018211;28;20902;-70
2023/11/18 01:51:07;;;;;;;10.90;9.17;;;9.10;99.90;;;;;;5018367;28;20423;-71
2023/11/18 01:53:36;;;;;;;11.03;9.53;;;9.10;99.90;;;;;;5023759;28;20500;-71
2023/11/18 01:56:02;;;;;;;11.20;9.93;;;9.00;99.90;;;;;;5013008;28;20428;-71
2023/11/18 01:58:30;;;;;;;12.67;10.63;;;9.00;99.90;;;;;;5016551;28;20431;-71
2023/11/18 02:00:56;;;;;;;16.90;10.93;;;9.00;99.90;;;;;;5013928;28;20547;-71
2023/11/18 02:03:22;;;;;;;11.10;9.97;;;9.10;99.90;;;;;;5010440;28;20473;-71
2023/11/18 02:05:48;;;;;;;9.73;8.67;;;9.10;99.90;;;;;;5015114;28;20443;-71
2023/11/18 02:08:14;;;;;;;11.07;8.90;;;9.20;99.90;;;;;;5022461;28;22317;-71
2023/11/18 02:11:15;;;;;;;9.33;8.07;;;9.10;99.90;;;;;;5011264;28;20694;-71
2023/11/18 02:13:44;;;;;;;11.10;9.70;;;9.20;99.90;;;;;;5018075;28;20451;-71
2023/11/18 02:16:11;;;;;;;10.80;9.70;;;9.10;99.90;;;;;;5019645;28;20436;-71
2023/11/18 02:18:39;;;;;;;9.77;8.47;;;9.10;99.90;;;;;;5010419;28;20512;-71
2023/11/18 02:21:08;;;;;;;10.90;9.20;;;9.10;99.90;;;;;;5018010;28;20415;-72
2023/11/18 02:23:34;;;;;;;13.03;9.53;;;9.00;99.90;;;;;;5014085;28;20460;-71
2023/11/18 02:26:01;;;;;;;10.60;8.30;;;9.00;99.90;;;;;;5021562;28;20435;-72
2023/11/18 02:28:27;;;;;;;10.37;8.73;;;9.10;99.90;;;;;;5020559;28;20180;-71
2023/11/18 02:31:03;;;;;;;12.27;8.50;;;9.10;99.90;;;;;;5019866;28;20408;-71
2023/11/18 02:33:39;;;;;;;9.73;8.73;;;9.10;99.90;;;;;;5009210;28;20490;-70
2023/11/18 02:36:14;;;;;;;9.00;8.10;;;9.10;99.90;;;;;;5011329;28;20910;-70
2023/11/18 02:38:47;;;;;;;9.43;8.07;;;9.10;99.90;;;;;;5018972;28;20473;-70
2023/11/18 02:41:14;;;;;;;11.97;9.20;;;9.10;99.90;;;;;;5014878;28;20952;-70
2023/11/18 02:43:40;;;;;;;13.23;8.87;;;9.10;99.90;;;;;;5017352;28;20476;-71
2023/11/18 02:46:12;;;;;;;11.33;9.27;;;9.10;99.90;;;;;;5012267;28;20430;-70
2023/11/18 02:48:38;;;;;;;11.63;9.87;;;9.00;99.90;;;;;;5014475;28;20445;-70
2023/11/18 02:51:04;;;;;;;10.70;9.33;;;9.10;99.90;;;;;;5019215;28;20498;-71
2023/11/18 02:53:30;;;;;;;11.33;9.73;;;9.10;99.90;;;;;;5012675;28;20434;-70
2023/11/18 02:56:02;;;;;;;11.50;9.40;;;9.00;99.90;;;;;;5019471;28;20948;-71
2023/11/18 02:58:31;;;;;;;12.40;10.30;;;9.00;99.90;;;;;;5016438;28;20654;-71
2023/11/18 03:00:59;;;;;;;11.93;10.40;;;9.00;99.90;;;;;;5027260;28;20411;-72
2023/11/18 03:03:28;;;;;;;11.90;10.17;;;8.90;99.90;;;;;;5018486;28;20531;-72
2023/11/18 03:05:54;;;;;;;17.90;10.80;;;9.00;99.90;;;;;;5020324;28;20415;-72
2023/11/18 03:08:20;;;;;;;14.40;10.47;;;9.00;99.90;;;;;;5024850;28;20421;-71
2023/11/18 03:10:46;;;;;;;13.80;10.97;;;8.90;99.90;;;;;;5018028;28;20497;-70
2023/11/18 03:13:12;;;;;;;14.10;11.30;;;8.90;99.90;;;;;;5018540;28;20212;-71
2023/11/18 03:15:38;;;;;;;14.73;11.70;;;8.90;99.90;;;;;;5018960;28;20456;-70
2023/11/18 03:18:05;;;;;;;14.73;11.80;;;8.90;99.90;;;;;;5020341;28;20672;-71
2023/11/18 03:20:33;;;;;;;12.93;11.50;;;9.00;99.90;;;;;;5023199;28;20892;-71
2023/11/18 03:23:01;;;;;;;10.90;9.80;;;9.00;99.90;;;;;;5018835;28;20486;-70
2023/11/18 03:25:26;;;;;;;14.97;11.03;;;9.00;99.90;;;;;;5013826;28;20419;-70
2023/11/18 03:27:54;;;;;;;15.60;12.23;;;9.00;99.90;;;;;;5022366;28;20497;-70
2023/11/18 03:30:20;;;;;;;13.73;10.63;;;9.00;99.90;;;;;;5021271;28;20176;-71
2023/11/18 03:32:46;;;;;;;14.87;12.27;;;9.00;99.90;;;;;;5022373;28;20521;-70
2023/11/18 03:35:11;;;;;;;15.03;12.50;;;9.00;99.90;;;;;;5023438;28;20424;-70
2023/11/18 03:37:41;;;;;;;15.33;12.30;;;9.00;99.90;;;;;;5023615;28;20598;-71
2023/11/18 03:40:11;;;;;;;17.83;12.90;;;9.00;99.90;;;;;;5019202;28;20208;-71
2023/11/18 03:42:38;;;;;;;15.90;11.90;;;9.10;99.90;;;;;;5023080;28;20470;-71
2023/11/18 03:45:04;;;;;;;15.10;12.73;;;9.00;99.90;;;;;;5015992;28;20521;-71
2023/11/18 03:47:30;;;;;;;13.50;11.77;;;9.00;99.90;;;;;;5012291;28;20450;-71
2023/11/18 03:49:56;;;;;;;16.17;13.30;;;9.00;99.90;;;;;;5020210;28;20415;-71
2023/11/18 03:52:22;;;;;;;14.00;11.73;;;9.00;99.90;;;;;;5013850;28;20922;-71
2023/11/18 03:54:47;;;;;;;13.80;12.40;;;9.00;99.90;;;;;;5018052;28;20189;-71
2023/11/18 03:57:13;;;;;;;14.57;12.60;;;9.00;99.90;;;;;;5015035;28;20193;-70
2023/11/18 03:59:40;;;;;;;17.07;13.73;;;8.90;99.90;;;;;;5023877;28;20308;-71
2023/11/18 04:02:06;;;;;;;14.73;12.80;;;9.00;99.90;;;;;;5018620;28;20205;-71
2023/11/18 04:04:32;;;;;;;14.70;13.03;;;9.00;99.90;;;;;;5021528;28;20977;-71
2023/11/18 04:07:00;;;;;;;16.10;13.20;;;9.00;99.90;;;;;;5017986;28;20417;-71
2023/11/18 04:09:26;;;;;;;15.47;13.40;;;8.90;99.90;;;;;;5015349;28;20186;-70
2023/11/18 04:11:52;;;;;;;15.07;12.60;;;8.90;99.90;;;;;;5022367;28;20535;-71
2023/11/18 04:14:18;;;;;;;16.80;13.27;;;8.80;99.90;;;;;;5012802;28;20444;-70
2023/11/18 04:16:45;;;;;;;14.53;12.70;;;8.80;99.90;;;;;;5017633;28;20213;-70
2023/11/18 04:19:12;;;;;;;15.40;12.20;;;8.80;99.90;;;;;;5018170;28;20480;-71
2023/11/18 04:21:38;;;;;;;16.43;14.43;;;8.70;99.90;;;;;;5015221;28;20440;-71
2023/11/18 04:24:05;;;;;;;16.90;13.87;;;8.70;99.90;;;;;;5025043;28;21012;-71
2023/11/18 04:26:31;;;;;;;17.73;14.40;;;8.70;99.90;;;;;;5018453;28;20921;-71
2023/11/18 04:28:58;;;;;;;17.93;15.27;;;8.70;99.90;;;;;;5016701;28;20449;-70
2023/11/18 04:31:24;;;;;;;23.70;15.00;;;8.70;99.90;;;;;;5015406;28;20436;-71
2023/11/18 04:33:49;;;;;;;21.37;15.90;;;8.60;99.90;;;;;;5019712;28;20464;-71
2023/11/18 04:36:16;;;;;;;17.50;14.80;;;8.60;99.90;;;;;;5017352;28;20420;-71
2023/11/18 04:38:42;;;;;;;19.47;15.80;;;8.60;99.90;;;;;;5011528;28;20181;-70
2023/11/18 04:41:08;;;;;;;22.37;16.00;;;8.50;99.90;;;;;;5024234;28;20408;-71
2023/11/18 04:43:33;;;;;;;21.27;15.40;;;8.50;99.90;;;;;;5018367;28;20552;-71
2023/11/18 04:45:59;;;;;;;25.07;15.00;;;8.60;99.90;;;;;;5019668;28;20183;-70
2023/11/18 04:48:25;;;;;;;15.23;13.63;;;8.60;99.90;;;;;;5017179;28;20375;-71
2023/11/18 04:50:50;;;;;;;16.93;14.17;;;8.70;99.90;;;;;;5018582;28;20701;-70
2023/11/18 04:53:16;;;;;;;18.17;14.30;;;8.60;99.90;;;;;;5015787;28;20269;-71
2023/11/18 04:55:42;;;;;;;17.07;14.00;;;8.60;99.90;;;;;;5016329;28;20188;-71
2023/11/18 04:58:09;;;;;;;18.10;15.10;;;8.60;99.90;;;;;;5010474;28;20744;-71
2023/11/18 05:00:38;;;;;;;16.43;13.13;;;8.70;99.90;;;;;;5011901;28;20176;-71
2023/11/18 05:03:05;;;;;;;18.27;14.50;;;8.60;99.90;;;;;;5015417;28;20475;-71
2023/11/18 05:05:31;;;;;;;21.20;15.07;;;8.50;99.90;;;;;;5011179;28;20829;-70
2023/11/18 05:07:57;;;;;;;17.70;15.50;;;8.60;99.90;;;;;;5017423;28;20418;-70
2023/11/18 05:10:23;;;;;;;19.57;16.47;;;8.60;99.90;;;;;;5016181;28;20440;-70
2023/11/18 05:12:55;;;;;;;18.77;15.60;;;8.50;99.90;;;;;;5010526;28;20197;-70
2023/11/18 05:15:24;;;;;;;21.20;14.90;;;8.50;99.90;;;;;;5014076;28;20418;-71
2023/11/18 05:17:53;;;;;;;20.60;15.23;;;8.50;99.90;;;;;;5014341;28;20426;-71
2023/11/18 05:20:19;;;;;;;20.87;16.00;;;8.50;99.90;;;;;;5016840;28;20848;-71
2023/11/18 05:22:45;;;;;;;17.50;14.90;;;8.50;99.90;;;;;;5015954;28;20882;-71
2023/11/18 05:25:11;;;;;;;21.23;16.80;;;8.50;99.90;;;;;;5010907;28;20416;-71
2023/11/18 05:27:39;;;;;;;18.83;15.73;;;8.50;99.90;;;;;;5018862;28;20669;-70
2023/11/18 05:30:06;;;;;;;19.43;14.87;;;8.50;99.90;;;;;;5015634;28;20420;-70
2023/11/18 05:32:33;;;;;;;18.37;14.90;;;8.40;99.90;;;;;;5017303;28;20444;-70
2023/11/18 05:34:59;;;;;;;22.63;16.60;;;8.40;99.90;;;;;;5014451;28;20970;-70
2023/11/18 05:37:24;;;;;;;21.80;17.00;;;8.40;99.90;;;;;;5011925;28;20415;-70
2023/11/18 05:39:59;;;;;;;20.93;16.33;;;8.30;99.90;;;;;;5019961;28;20891;-71
2023/11/18 05:42:27;;;;;;;21.87;16.70;;;8.30;99.90;;;;;;5021627;28;20195;-70
2023/11/18 05:44:59;;;;;;;20.60;16.00;;;8.40;99.90;;;;;;5017767;28;20420;-70
2023/11/18 05:47:28;;;;;;;20.17;15.10;;;8.30;99.90;;;;;;5011099;28;20428;-70
2023/11/18 05:49:54;;;;;;;20.77;16.43;;;8.40;99.90;;;;;;5021973;28;20441;-71
2023/11/18 05:52:20;;;;;;;20.77;14.83;;;8.30;99.90;;;;;;5027365;28;20422;-71
2023/11/18 05:54:49;;;;;;;23.97;14.63;;;8.30;99.90;;;;;;5021436;28;20931;-71
2023/11/18 05:57:18;;;;;;;16.70;14.27;;;8.30;99.90;;;;;;5027909;28;20418;-71
2023/11/18 05:59:44;;;;;;;16.57;14.00;;;8.40;99.90;;;;;;5026383;28;20445;-70
2023/11/18 06:02:17;;;;;;;19.30;14.47;;;8.40;99.90;;;;;;5018900;28;20454;-70
2023/11/18 06:04:47;;;;;;;16.53;13.20;;;8.40;99.90;;;;;;5025388;28;20415;-71
2023/11/18 06:07:13;;;;;;;16.00;13.00;;;8.30;99.90;;;;;;5024065;28;20403;-70
2023/11/18 06:09:44;;;;;;;21.73;15.43;;;8.30;99.90;;;;;;5017215;28;20479;-70
2023/11/18 06:12:10;;;;;;;13.97;12.03;;;8.30;99.90;;;;;;5024197;28;20426;-71
2023/11/18 06:14:37;;;;;;;19.63;13.53;;;8.30;99.90;;;;;;5023809;28;20478;-70
2023/11/18 06:17:03;;;;;;;18.00;14.43;;;8.40;99.90;;;;;;5021063;28;20891;-70
2023/11/18 06:19:28;;;;;;;15.20;12.97;;;8.30;99.90;;;;;;5020989;28;20429;-70
2023/11/18 06:21:54;;;;;;;18.60;13.93;;;8.30;99.90;;;;;;5019302;28;20949;-70
2023/11/18 06:24:21;;;;;;;17.07;13.73;;;8.30;99.90;;;;;;5016585;28;20216;-71
2023/11/18 06:26:49;;;;;;;21.80;14.57;;;8.20;99.90;;;;;;5016339;28;20461;-71
2023/11/18 06:29:15;;;;;;;19.67;14.80;;;8.20;99.90;;;;;;5022696;28;20414;-70
2023/11/18 06:31:41;;;;;;;16.87;13.87;;;8.20;99.90;;;;;;5017744;28;20420;-70
2023/11/18 06:34:07;;;;;;;19.13;13.37;;;8.30;99.90;;;;;;5014156;28;20550;-71
2023/11/18 06:36:33;;;;;;;16.50;13.37;;;8.30;99.90;;;;;;5017789;28;20177;-70
2023/11/18 06:38:58;;;;;;;18.60;13.90;;;8.30;99.90;;;;;;5018377;28;20486;-70
2023/11/18 06:41:33;;;;;;;18.20;13.40;;;8.30;99.90;;;;;;5019047;28;20209;-71
2023/11/18 06:44:08;;;;;;;19.30;13.10;;;8.30;99.90;;;;;;5021885;28;20208;-70
2023/11/18 06:46:34;;;;;;;17.43;13.67;;;8.30;99.90;;;;;;5022389;28;20432;-70
2023/11/18 06:49:05;;;;;;;20.77;14.20;;;8.30;99.90;;;;;;5018681;28;20424;-70
2023/11/18 06:51:34;;;;;;;18.63;13.77;;;8.20;99.90;;;;;;5023072;28;20178;-71
2023/11/18 06:54:02;;;;;;;18.33;14.23;;;8.10;99.90;;;;;;5015087;28;20505;-72
2023/11/18 06:56:28;;;;;;;17.80;14.03;;;8.20;99.90;;;;;;5031096;28;20420;-70
2023/11/18 06:58:54;;;;;;;17.27;14.23;;;8.20;99.90;;;;;;5013970;28;20440;-70
2023/11/18 07:01:20;;;;;;;18.03;14.03;;;8.20;99.90;;;;;;5015153;28;20173;-71
2023/11/18 07:03:48;;;;;;;18.83;13.43;;;8.20;99.90;;;;;;5015106;28;20475;-70
2023/11/18 07:06:22;;;;;;;19.67;14.50;;;8.30;99.90;;;;;;5018724;28;20765;-70
2023/11/18 07:08:49;;;;;;;17.90;14.20;;;8.30;99.90;;;;;;5021120;28;20530;-71
2023/11/18 07:11:15;;;;;;;18.57;13.47;;;8.40;99.90;;;;;;5020075;28;20457;-71
2023/11/18 07:13:41;;;;;;;19.50;14.83;;;8.40;99.90;;;;;;5024042;28;20492;-70
2023/11/18 07:16:08;;;;;;;18.63;14.30;;;8.40;99.90;;;;;;5025318;28;20415;-70
2023/11/18 07:18:34;;;;;;;15.17;11.90;;;8.40;99.90;;;;;;5020047;28;20412;-70
2023/11/18 07:21:00;;;;;;;23.63;14.00;;;8.40;99.90;;;;;;5016902;28;20485;-71
2023/11/18 07:23:26;;;;;;;16.80;13.27;;;8.40;99.90;;;;;;5025768;28;21016;-70
2023/11/18 07:25:53;;;;;;;21.70;13.10;;;8.40;99.90;;;;;;5023492;28;20180;-70
2023/11/18 07:28:19;;;;;;;14.33;11.47;;;8.40;99.90;;;;;;5020248;28;20466;-71
2023/11/18 07:30:47;;;;;;;17.00;11.83;;;8.50;99.90;;;;;;5025462;28;20412;-70
2023/11/18 07:33:22;;;;;;;18.33;14.03;;;8.60;99.90;;;;;;5018862;28;20472;-70
2023/11/18 07:35:48;;;;;;;17.20;11.07;;;8.60;99.90;;;;;;5022224;28;21098;-70
2023/11/18 07:38:20;;;;;;;16.30;13.57;;;8.70;99.90;;;;;;5017706;28;20444;-71
2023/11/18 07:40:45;;;;;;;18.87;13.13;;;8.80;99.90;;;;;;5019268;28;20419;-70
2023/11/18 07:43:12;;;;;;;15.10;11.70;;;8.80;99.90;;;;;;5014941;28;21004;-71
2023/11/18 07:45:39;;;;;;;15.30;12.27;;;8.90;99.90;;;;;;5020904;28;20187;-71
2023/11/18 07:48:06;;;;;;;16.93;12.57;;;8.90;99.90;;;;;;5011518;28;20420;-70
2023/11/18 07:50:37;;;;;;;16.23;11.87;;;9.00;99.90;;;;;;5016934;28;20565;-70
2023/11/18 07:53:03;;;;;;;14.50;11.80;;;9.10;99.90;;;;;;5022148;28;20536;-71
2023/11/18 07:55:29;;;;;;;17.97;12.00;;;9.10;99.90;;;;;;5019087;28;20420;-75
2023/11/18 07:57:55;;;;;;;14.90;11.60;;;9.20;99.90;;;;;;5022764;28;20812;-71
2023/11/18 08:00:23;;;;;;;14.37;11.60;;;9.10;99.90;;;;;;5016849;28;20822;-70
2023/11/18 08:02:49;;;;;;;14.03;11.40;;;9.10;99.90;;;;;;5020551;28;20259;-72
2023/11/18 08:05:15;;;;;;;13.57;10.40;;;9.20;99.90;;;;;;5011106;28;20436;-71
2023/11/18 08:07:46;;;;;;;14.80;11.17;;;9.20;99.90;;;;;;5017971;28;20566;-71
2023/11/18 08:10:12;;;;;;;14.27;11.93;;;9.20;99.90;;;;;;5018356;28;20169;-71
2023/11/18 08:12:40;;;;;;;13.30;11.57;;;9.20;99.90;;;;;;5021580;28;20803;-71
2023/11/18 08:15:09;;;;;;;13.83;11.30;;;9.20;99.90;;;;;;5016336;28;20416;-71
2023/11/18 08:17:35;;;;;;;13.13;10.90;;;9.20;99.90;;;;;;5022149;28;20431;-71
2023/11/18 08:20:00;;;;;;;15.87;12.10;;;9.20;99.90;;;;;;5015284;28;21011;-70
2023/11/18 08:22:26;;;;;;;14.17;11.20;;;9.20;99.90;;;;;;5021178;28;20204;-73
2023/11/18 08:24:51;;;;;;;15.00;10.80;;;9.30;99.90;;;;;;5025601;28;20685;-72
2023/11/18 08:27:17;;;;;;;17.00;9.90;;;9.30;99.90;;;;;;5014767;28;20294;-70
2023/11/18 08:29:43;;;;;;;13.83;10.00;;;9.40;99.90;;;;;;5020130;28;20550;-71
2023/11/18 08:32:09;;;;;;;10.80;8.23;;;9.30;99.90;;;;;;5022377;28;20183;-71
2023/11/18 08:34:37;;;;;;;14.30;9.30;;;9.40;99.90;;;;;;5011782;28;20768;-71
2023/11/18 08:37:07;;;;;;;14.33;10.73;;;9.50;99.90;;;;;;5019297;28;21034;-71
2023/11/18 08:39:32;;;;;;;16.60;12.47;;;9.50;99.90;;;;;;5020163;28;21192;-72
2023/11/18 08:41:58;;;;;;;12.53;10.37;;;9.60;99.90;;;;;;5024737;28;20468;-72
2023/11/18 08:44:24;;;;;;;14.63;11.27;;;9.60;99.90;;;;;;5022096;28;20193;-72
2023/11/18 08:46:51;;;;;;;14.57;10.60;;;9.70;99.90;;;;;;5019894;28;20175;-71
2023/11/18 08:49:21;;;;;;;13.53;10.40;;;9.70;99.90;;;;;;5015562;28;20502;-70
2023/11/18 08:51:55;;;;;;;16.33;11.40;;;9.70;99.90;;;;;;5015933;28;20470;-71
2023/11/18 08:54:36;;;;;;;13.50;10.90;;;9.80;99.90;;;;;;5017630;28;21015;-70
2023/11/18 08:57:23;;;;;;;20.40;11.10;;;9.90;99.90;;;;;;5019754;28;20464;-71
2023/11/18 08:59:50;;;;;;;13.97;10.33;;;9.90;99.90;;;;;;5022347;28;20845;-71
2023/11/18 09:02:23;;;;;;;15.27;11.40;;;10.00;99.90;;;;;;5011653;28;20803;-71
2023/11/18 09:04:52;;;;;;;12.10;10.43;;;10.00;99.90;;;;;;5018104;28;20514;-71
2023/11/18 09:07:19;;;;;;;15.20;11.10;;;10.10;99.90;;;;;;5018392;28;20406;-71
2023/11/18 09:09:44;;;;;;;13.10;10.33;;;10.10;99.90;;;;;;5024078;28;20410;-71
2023/11/18 09:12:14;;;;;;;14.43;10.30;;;10.20;99.90;;;;;;5013488;28;20459;-71
2023/11/18 09:14:42;;;;;;;11.30;9.63;;;10.20;99.90;;;;;;5017351;28;20789;-71
2023/11/18 09:17:09;;;;;;;10.37;8.57;;;10.30;99.90;;;;;;5012388;28;20433;-72
2023/11/18 09:19:35;;;;;;;11.27;8.83;;;10.40;99.90;;;;;;5016911;28;20434;-71
2023/11/18 09:22:00;;;;;;;10.87;7.73;;;10.50;99.90;;;;;;5008505;28;20427;-71
2023/11/18 09:24:26;;;;;;;11.60;7.60;;;10.50;99.90;;;;;;5012553;28;20209;-71
2023/11/18 09:26:51;;;;;;;9.07;8.13;;;10.60;99.90;;;;;;5011606;28;20200;-71
2023/11/18 09:29:23;;;;;;;10.53;7.53;;;10.70;99.90;;;;;;5010455;28;20279;-71
2023/11/18 09:31:49;;;;;;;20.10;8.93;;;10.80;99.90;;;;;;5019465;28;20684;-71
2023/11/18 09:34:16;;;;;;;12.73;8.70;;;10.80;99.90;;;;;;5007134;28;20474;-71
2023/11/18 09:36:43;;;;;;;11.50;8.00;;;10.90;99.90;;;;;;5010609;28;20212;-71
2023/11/18 09:39:15;;;;;;;11.53;8.90;;;10.90;99.90;;;;;;5008309;28;20427;-71
2023/11/18 09:41:41;;;;;;;11.13;7.97;;;11.00;99.90;;;;;;5018859;28;20442;-71
2023/11/18 09:44:07;;;;;;;12.60;8.03;;;11.10;99.90;;;;;;5013217;28;21064;-71
2023/11/18 09:46:40;;;;;;;10.20;6.73;;;11.10;99.90;;;;;;5013713;28;20694;-71
2023/11/18 09:49:17;;;;;;;7.43;6.57;;;11.20;99.90;;;;;;5008257;28;20177;-71
2023/11/18 09:51:47;;;;;;;9.40;7.20;;;11.20;99.90;;;;;;5014352;28;20438;-71
2023/11/18 09:54:36;;;;;;;9.13;7.30;;;11.30;99.90;;;;;;5013433;28;20883;-71
2023/11/18 09:57:22;;;;;;;6.90;6.07;;;11.30;99.90;;;;;;5011222;28;20784;-71
2023/11/18 10:00:26;;;;;;;8.40;6.03;;;11.30;99.90;;;;;;5013904;28;20425;-71
2023/11/18 10:02:55;;;;;;;7.73;6.10;;;11.40;99.90;;;;;;5009914;28;20847;-71
2023/11/18 10:05:22;;;;;;;7.83;5.87;;;11.40;99.90;;;;;;5009720;28;20780;-71
2023/11/18 10:07:49;;;;;;;10.57;6.50;;;11.40;99.90;;;;;;5018875;28;20424;-71
2023/11/18 10:10:15;;;;;;;8.00;7.20;;;11.40;99.90;;;;;;5017031;28;20482;-72
2023/11/18 10:12:45;;;;;;;7.90;6.20;;;11.40;99.90;;;;;;5020200;28;20443;-71
2023/11/18 10:15:17;;;;;;;8.87;6.33;;;11.50;99.90;;;;;;5020865;28;20434;-71
2023/11/18 10:17:59;;;;;;;9.63;6.00;;;11.50;99.90;;;;;;5021359;28;20846;-71
2023/11/18 10:20:47;;;;;;;9.00;7.13;;;11.50;99.90;;;;;;5015078;28;20493;-71
2023/11/18 10:23:21;;;;;;;8.97;6.60;;;11.60;99.90;;;;;;5014186;28;20526;-71
2023/11/18 10:25:52;;;;;;;7.10;5.70;;;11.40;99.90;;;;;;5021115;28;20682;-71
2023/11/18 10:28:32;;;;;;;7.03;5.57;;;11.50;99.90;;;;;;5022122;28;20436;-72
2023/11/18 10:31:06;;;;;;;8.50;5.90;;;11.40;99.90;;;;;;5020261;28;20912;-72
2023/11/18 10:33:37;;;;;;;7.90;7.10;;;11.50;99.90;;;;;;5020807;28;20474;-71
2023/11/18 10:36:04;;;;;;;11.70;7.50;;;11.40;99.90;;;;;;5014529;28;20497;-71
2023/11/18 10:38:39;;;;;;;7.57;6.30;;;11.40;99.90;;;;;;5021279;28;20442;-71
2023/11/18 10:41:05;;;;;;;13.93;8.90;;;11.50;99.90;;;;;;5020607;28;20440;-71
2023/11/18 10:43:35;;;;;;;10.80;7.07;;;11.50;99.90;;;;;;5020475;28;20525;-71
2023/11/18 10:46:11;;;;;;;16.27;7.13;;;11.50;99.90;;;;;;5013711;28;20863;-71
2023/11/18 10:48:50;;;;;;;10.47;7.00;;;11.50;99.90;;;;;;5018894;28;20518;-71
2023/11/18 10:51:19;;;;;;;22.13;13.87;;;11.50;99.90;;;;;;5026357;28;20442;-71
2023/11/18 10:53:53;;;;;;;8.13;6.93;;;11.50;99.90;;;;;;5021537;28;20451;-72
2023/11/18 10:56:28;;;;;;;13.27;9.60;;;11.40;99.90;;;;;;5020814;28;20909;-72
2023/11/18 10:58:58;;;;;;;10.50;6.40;;;11.40;99.90;;;;;;5029458;28;21003;-73
2023/11/18 11:01:34;;;;;;;6.83;5.10;;;11.40;99.90;;;;;;5018957;28;20514;-72
2023/11/18 11:04:04;;;;;;;5.87;4.30;;;11.30;99.90;;;;;;5022654;28;20473;-72
2023/11/18 11:06:31;;;;;;;9.00;5.00;;;11.20;99.90;;;;;;5013327;28;20525;-72
2023/11/18 11:09:00;;;;;;;5.00;4.20;;;11.20;99.90;;;;;;5022164;28;20451;-73
2023/11/18 11:11:39;;;;;;;6.60;4.13;;;11.20;99.90;;;;;;5013693;28;20446;-73
2023/11/18 11:14:09;;;;;;;5.70;4.70;;;11.10;99.90;;;;;;5011195;28;20459;-73
2023/11/18 11:16:43;;;;;;;5.70;4.40;;;11.00;99.90;;;;;;5014185;28;20432;-72
2023/11/18 11:19:22;;;;;;;6.73;4.90;;;11.10;99.90;;;;;;5017250;28;20890;-71
2023/11/18 11:22:02;;;;;;;9.03;4.30;;;11.00;99.90;;;;;;5017395;28;20430;-71
2023/11/18 11:24:59;;;;;;;6.60;3.80;;;10.90;99.90;;;;;;5015066;28;20516;-71
2023/11/18 11:28:10;;;;;;;6.20;4.17;;;11.00;99.90;;;;;;5016402;28;20431;-74
2023/11/18 11:30:49;;;;;;;6.20;3.57;;;10.90;99.90;;;;;;5009616;28;20416;-73
2023/11/18 11:34:02;;;;;;;6.30;4.33;;;10.90;99.90;;;;;;5014057;28;20471;-72
2023/11/18 11:36:36;;;;;;;7.90;4.53;;;10.80;99.90;;;;;;5018054;28;20963;-72
2023/11/18 11:39:03;;;;;;;6.90;4.30;;;10.90;99.90;;;;;;5018266;28;20436;-72
2023/11/18 11:41:34;;;;;;;8.40;5.47;;;10.80;99.90;;;;;;5013330;28;20443;-72
2023/11/18 11:44:00;;;;;;;7.53;5.40;;;10.80;99.90;;;;;;5016056;28;21243;-72
2023/11/18 11:46:33;;;;;;;6.20;5.20;;;10.90;99.90;;;;;;5022076;28;20706;-72
2023/11/18 11:49:08;;;;;;;7.57;5.43;;;11.00;99.90;;;;;;5022976;28;20450;-72
2023/11/18 11:51:38;;;;;;;17.40;6.20;;;11.00;99.90;;;;;;5015463;28;20493;-72
2023/11/18 11:54:15;;;;;;;5.30;4.77;;;11.10;99.90;;;;;;5021643;28;20442;-72
2023/11/18 11:56:55;;;;;;;9.43;5.70;;;11.10;99.90;;;;;;5022357;28;20439;-72
2023/11/18 11:59:55;;;;;;;7.07;5.70;;;11.10;99.90;;;;;;5016964;28;20478;-72
2023/11/18 12:02:25;;;;;;;8.67;5.90;;;10.90;99.90;;;;;;5019717;28;20431;-72
2023/11/18 12:04:54;;;;;;;8.03;5.23;;;10.90;99.90;;;;;;5014741;28;20428;-73
2023/11/18 12:07:27;;;;;;;9.50;6.43;;;10.90;99.90;;;;;;5018603;28;20446;-72
2023/11/18 12:09:57;;;;;;;7.80;5.97;;;11.00;99.90;;;;;;5019564;28;20840;-73
2023/11/18 12:12:27;;;;;;;8.83;6.80;;;11.10;99.90;;;;;;5016881;28;20518;-72
2023/11/18 12:15:00;;;;;;;13.83;10.10;;;11.00;99.90;;;;;;5017280;28;20450;-73
2023/11/18 12:17:28;;;;;;;12.40;8.17;;;11.10;99.90;;;;;;5012276;28;20423;-72
2023/11/18 12:19:58;;;;;;;9.67;8.60;;;11.10;99.90;;;;;;5015660;28;20439;-72
2023/11/18 12:22:26;;;;;;;10.00;8.23;;;11.00;99.90;;;;;;5024100;22;20467;-73
2023/11/18 12:24:57;;;;;;;10.20;9.10;;;11.00;99.90;;;;;;5043781;28;20686;-72
2023/11/18 12:27:52;;;;;;;9.23;8.30;;;11.00;99.90;;;;;;5040103;28;20440;-72
2023/11/18 12:30:22;;;;;;;9.60;8.50;;;11.00;99.90;;;;;;5042502;28;20453;-73
2023/11/18 12:33:01;;;;;;;11.13;9.77;;;11.00;99.90;;;;;;5041587;28;20814;-73
2023/11/18 12:35:32;;;;;;;15.80;7.93;;;10.90;99.90;;;;;;5038176;28;20443;-73
2023/11/18 12:38:29;;;;;;;10.03;7.70;;;10.90;99.90;;;;;;5040511;28;20788;-73
2023/11/18 12:40:56;;;;;;;10.30;7.10;;;10.90;99.90;;;;;;5041161;28;20419;-72
2023/11/18 12:43:52;;;;;;;13.77;7.43;;;10.90;99.90;;;;;;5046685;28;20466;-72
2023/11/18 12:46:39;;;;;;;8.77;7.77;;;10.90;99.90;;;;;;5041094;28;20938;-72
2023/11/18 12:49:05;;;;;;;13.03;7.70;;;10.90;99.90;;;;;;5036850;28;20514;-72
2023/11/18 12:51:34;;;;;;;7.73;6.10;;;10.90;99.90;;;;;;5044252;28;20422;-72